Time;durP1;ratioP1;P1;durP2;ratioP2;P2;SDS_P1;SDS_P2;PMS_P1;PMS_P2;Temp;Humidity;BMP_temperature;BMP_pressure;BME280_temperature;BME280_humidity;BME280_pressure;Samples;Min_cycle;Max_cycle;Signal;HPM_P1;HPM_P2
2021/12/16 00:01:49;;;;;;;21.70;9.00;;;6.20;99.90;;;;;;4993824;28;20038;-83
2021/12/16 00:09:53;;;;;;;20.13;9.90;;;6.20;99.90;;;;;;4971684;28;20048;-83
2021/12/16 00:29:41;;;;;;;26.33;10.25;;;6.00;99.90;;;;;;4972916;28;20058;-82
2021/12/16 00:32:20;;;;;;;23.55;10.48;;;6.10;99.90;;;;;;4993550;28;20046;-82
2021/12/16 00:34:50;;;;;;;24.65;10.63;;;6.00;99.90;;;;;;4991559;28;20038;-82
2021/12/16 00:37:17;;;;;;;17.58;8.80;;;6.10;99.90;;;;;;4960656;28;20035;-83
2021/12/16 00:39:44;;;;;;;28.17;10.43;;;6.00;99.90;;;;;;4975699;28;20102;-82
2021/12/16 00:42:24;;;;;;;22.90;10.13;;;6.00;99.90;;;;;;4977177;28;20042;-83
2021/12/16 00:49:52;;;;;;;21.15;9.68;;;5.80;99.90;;;;;;4974775;28;20517;-83
2021/12/16 00:57:54;;;;;;;22.67;10.02;;;5.80;99.90;;;;;;4993458;28;20047;-82
2021/12/16 01:00:24;;;;;;;28.55;11.82;;;5.80;99.90;;;;;;4975480;28;20048;-83
2021/12/16 01:08:27;;;;;;;25.45;10.50;;;5.70;99.90;;;;;;4976970;28;20177;-83
2021/12/16 01:39:02;;;;;;;90.85;14.75;;;5.70;99.90;;;;;;4990891;28;20109;-83
2021/12/16 01:42:13;;;;;;;85.60;16.35;;;5.70;99.90;;;;;;4976307;28;20049;-83
2021/12/16 01:47:23;;;;;;;60.88;13.88;;;5.70;99.90;;;;;;4975463;28;20049;-83
2021/12/16 01:49:58;;;;;;;49.13;13.38;;;5.70;99.90;;;;;;4968626;28;20500;-82
2021/12/16 01:55:38;;;;;;;42.42;12.07;;;5.70;99.90;;;;;;4953048;28;20047;-83
2021/12/16 01:58:15;;;;;;;80.30;15.50;;;5.70;99.90;;;;;;4954869;28;20039;-83
2021/12/16 02:01:16;;;;;;;51.38;12.95;;;5.70;99.90;;;;;;4950916;28;20032;-84
2021/12/16 02:03:52;;;;;;;98.50;17.33;;;5.70;99.90;;;;;;4943169;28;20040;-82
2021/12/16 02:07:00;;;;;;;145.63;20.02;;;5.80;99.90;;;;;;4951219;28;20053;-82
2021/12/16 02:09:24;;;;;;;95.63;17.13;;;5.80;99.90;;;;;;4950008;28;20417;-82
2021/12/16 02:31:25;;;;;;;43.67;15.95;;;6.20;99.90;;;;;;4952820;28;20053;-82
2021/12/16 02:36:43;;;;;;;39.13;15.82;;;6.30;99.90;;;;;;4952387;29;20054;-82
2021/12/16 02:39:23;;;;;;;39.30;15.18;;;6.40;99.90;;;;;;4937800;29;20051;-83
2021/12/16 02:42:17;;;;;;;31.50;14.13;;;6.40;99.90;;;;;;4937787;29;20106;-82
2021/12/16 02:50:13;;;;;;;38.20;15.82;;;6.50;99.90;;;;;;4992080;28;20070;-82
2021/12/16 02:52:39;;;;;;;40.83;15.82;;;6.60;99.90;;;;;;4976407;28;20053;-83
2021/12/16 02:55:07;;;;;;;34.65;13.50;;;6.60;99.90;;;;;;4972624;28;20399;-83
2021/12/16 02:57:39;;;;;;;35.80;15.65;;;6.60;99.90;;;;;;4994434;28;20057;-82
2021/12/16 03:00:11;;;;;;;;;;;6.70;99.90;;;;;;4977421;28;20042;-82
2021/12/16 03:02:36;;;;;;;33.13;15.00;;;6.70;99.90;;;;;;4992170;28;20002;-82
2021/12/16 03:05:03;;;;;;;37.42;16.27;;;6.70;99.90;;;;;;4977196;28;20396;-82
2021/12/16 03:07:28;;;;;;;36.30;15.50;;;6.70;99.90;;;;;;4974406;28;20049;-82
2021/12/16 03:15:36;;;;;;;33.47;16.42;;;6.80;99.90;;;;;;4992886;28;20563;-82
2021/12/16 03:18:22;;;;;;;37.13;15.10;;;6.90;99.90;;;;;;4975968;28;20116;-82
2021/12/16 03:20:56;;;;;;;37.40;15.20;;;6.90;99.90;;;;;;4975750;28;20078;-82
2021/12/16 03:31:29;;;;;;;37.50;15.40;;;7.10;99.90;;;;;;4975251;28;20189;-83
2021/12/16 03:34:23;;;;;;;37.65;16.75;;;7.10;99.90;;;;;;4991605;28;20093;-82
2021/12/16 03:37:16;;;;;;;38.95;17.00;;;7.10;99.90;;;;;;4990624;28;20034;-83
2021/12/16 03:40:05;;;;;;;35.10;16.15;;;7.20;99.90;;;;;;4989950;28;20874;-83
2021/12/16 03:42:45;;;;;;;39.13;15.90;;;7.20;99.90;;;;;;4979517;28;20112;-83
2021/12/16 03:48:26;;;;;;;39.67;16.92;;;7.20;99.90;;;;;;4960492;28;20058;-82
2021/12/16 03:50:52;;;;;;;39.28;15.80;;;7.20;99.90;;;;;;4977497;28;20080;-83
2021/12/16 03:53:18;;;;;;;38.50;15.77;;;7.20;99.90;;;;;;4974215;28;20046;-82
2021/12/16 03:55:46;;;;;;;36.83;16.05;;;7.20;99.90;;;;;;4980729;28;20033;-82
2021/12/16 03:58:13;;;;;;;34.95;15.57;;;7.20;99.90;;;;;;4991458;28;20038;-82
2021/12/16 04:00:44;;;;;;;39.47;16.40;;;7.20;99.90;;;;;;4974164;28;20042;-82
2021/12/16 04:03:11;;;;;;;36.90;16.00;;;7.20;99.90;;;;;;4976584;28;20089;-83
2021/12/16 04:05:37;;;;;;;42.17;16.45;;;7.20;99.90;;;;;;4976221;28;20042;-82
2021/12/16 04:08:04;;;;;;;45.13;17.67;;;7.30;99.90;;;;;;4976395;28;20057;-82
2021/12/16 04:10:47;;;;;;;39.88;16.58;;;7.30;99.90;;;;;;4974500;28;20049;-82
2021/12/16 04:13:15;;;;;;;42.38;17.25;;;7.30;99.90;;;;;;4990412;28;20130;-82
2021/12/16 04:15:41;;;;;;;41.63;17.17;;;7.30;99.90;;;;;;4977369;28;20042;-83
2021/12/16 04:18:07;;;;;;;36.55;16.08;;;7.30;99.90;;;;;;4974774;28;20074;-83
2021/12/16 04:20:33;;;;;;;39.35;16.08;;;7.30;99.90;;;;;;4974716;28;20061;-83
2021/12/16 04:23:00;;;;;;;39.83;17.60;;;7.30;99.90;;;;;;4973867;28;20042;-83
2021/12/16 04:25:32;;;;;;;35.33;16.90;;;7.30;99.90;;;;;;4977874;28;20085;-82
2021/12/16 04:28:01;;;;;;;33.05;16.25;;;7.30;99.90;;;;;;4976474;28;20077;-82
2021/12/16 04:30:29;;;;;;;38.78;17.42;;;7.40;99.90;;;;;;4960488;28;20204;-83
2021/12/16 04:32:55;;;;;;;38.55;15.93;;;7.40;99.90;;;;;;4976329;28;20038;-82
2021/12/16 04:35:21;;;;;;;38.97;16.52;;;7.40;99.90;;;;;;4976358;28;20041;-83
2021/12/16 04:37:47;;;;;;;36.13;15.68;;;7.40;99.90;;;;;;4973546;28;20586;-83
2021/12/16 04:40:16;;;;;;;34.03;15.75;;;7.40;99.90;;;;;;4975756;28;20049;-82
2021/12/16 04:42:43;;;;;;;32.75;15.00;;;7.40;99.90;;;;;;4990345;28;20423;-83
2021/12/16 04:45:12;;;;;;;41.15;17.48;;;7.40;99.90;;;;;;4975785;28;20408;-82
2021/12/16 04:47:38;;;;;;;38.42;16.08;;;7.50;99.90;;;;;;4991803;28;20038;-82
2021/12/16 04:50:06;;;;;;;38.25;16.02;;;7.50;99.90;;;;;;4973385;28;20061;-82
2021/12/16 04:52:32;;;;;;;31.95;15.00;;;7.50;99.90;;;;;;4985740;28;20042;-83
2021/12/16 04:54:58;;;;;;;34.80;16.48;;;7.50;99.90;;;;;;4990998;28;20042;-83
2021/12/16 04:57:23;;;;;;;36.33;15.35;;;7.50;99.90;;;;;;4977426;28;20042;-83
2021/12/16 04:59:49;;;;;;;32.30;15.95;;;7.50;99.90;;;;;;4974864;28;20089;-82
2021/12/16 05:02:22;;;;;;;36.30;15.20;;;7.50;99.90;;;;;;4975734;28;20411;-82
2021/12/16 05:04:48;;;;;;;;;;;7.50;99.90;;;;;;4973887;28;20056;-83
2021/12/16 05:07:14;;;;;;;32.67;14.45;;;7.50;99.90;;;;;;4990077;28;19976;-85
2021/12/16 05:12:21;;;;;;;30.95;14.77;;;7.50;99.90;;;;;;4990069;28;20373;-83
2021/12/16 05:14:48;;;;;;;35.70;15.70;;;7.50;99.90;;;;;;4959105;28;20034;-83
2021/12/16 05:17:31;;;;;;;31.52;15.20;;;7.50;99.90;;;;;;4974895;28;20070;-82
2021/12/16 05:20:03;;;;;;;30.30;14.20;;;7.50;99.90;;;;;;4975446;28;20038;-82
2021/12/16 05:28:04;;;;;;;29.85;13.20;;;7.50;99.90;;;;;;4973832;28;20488;-82
2021/12/16 05:30:30;;;;;;;32.13;14.15;;;7.50;99.90;;;;;;4989638;28;20387;-83
2021/12/16 05:32:56;;;;;;;36.05;14.35;;;7.40;99.90;;;;;;4978382;28;20165;-82
2021/12/16 05:35:26;;;;;;;32.60;14.38;;;7.50;99.90;;;;;;4974804;28;20042;-82
2021/12/16 05:37:52;;;;;;;27.75;13.63;;;7.50;99.90;;;;;;4975544;28;20045;-82
2021/12/16 05:40:24;;;;;;;31.27;13.93;;;7.50;99.90;;;;;;4975602;28;20034;-83
2021/12/16 05:42:59;;;;;;;26.25;12.32;;;7.40;99.90;;;;;;4974065;28;20125;-83
2021/12/16 05:45:27;;;;;;;26.52;11.90;;;7.40;99.90;;;;;;4991005;28;20038;-82
2021/12/16 05:47:56;;;;;;;24.08;12.65;;;7.40;99.90;;;;;;4974595;28;20086;-82
2021/12/16 05:50:24;;;;;;;30.85;14.23;;;7.40;99.90;;;;;;4978373;28;20121;-82
2021/12/16 05:52:50;;;;;;;41.22;14.65;;;7.40;99.90;;;;;;4962229;28;20129;-82
2021/12/16 05:55:16;;;;;;;23.42;12.50;;;7.40;99.90;;;;;;4978849;28;20113;-84
2021/12/16 05:57:43;;;;;;;26.48;12.27;;;7.40;99.90;;;;;;4978217;28;20042;-82
2021/12/16 06:00:20;;;;;;;33.25;14.07;;;7.40;99.90;;;;;;4977865;28;20030;-82
2021/12/16 06:02:49;;;;;;;29.13;13.60;;;7.40;99.90;;;;;;4976727;28;20053;-83
2021/12/16 06:05:16;;;;;;;28.77;13.10;;;7.40;99.90;;;;;;4978790;28;20053;-82
2021/12/16 06:07:41;;;;;;;28.05;12.82;;;7.30;99.90;;;;;;4987177;28;20039;-83
2021/12/16 06:10:18;;;;;;;20.48;11.38;;;7.20;99.90;;;;;;4972953;28;20496;-82
2021/12/16 06:12:43;;;;;;;25.67;13.02;;;7.10;99.90;;;;;;4977445;28;20057;-82
2021/12/16 06:28:19;;;;;;;20.75;10.90;;;6.70;99.90;;;;;;4965316;28;20503;-83
2021/12/16 06:30:45;;;;;;;27.55;11.30;;;6.60;99.90;;;;;;4992727;28;20084;-83
2021/12/16 06:33:14;;;;;;;20.02;11.45;;;6.60;99.90;;;;;;4993712;28;20074;-83
2021/12/16 06:35:40;;;;;;;24.92;11.02;;;6.60;99.90;;;;;;4974951;28;20034;-83
2021/12/16 06:38:06;;;;;;;32.95;12.45;;;6.60;99.90;;;;;;4976337;28;20112;-83
2021/12/16 06:40:32;;;;;;;24.55;10.65;;;6.50;99.90;;;;;;4978034;28;20034;-84
2021/12/16 06:43:00;;;;;;;21.25;11.45;;;6.50;99.90;;;;;;4996029;28;20137;-82
2021/12/16 06:45:30;;;;;;;18.92;11.10;;;6.50;99.90;;;;;;4978104;28;20034;-82
2021/12/16 06:48:07;;;;;;;25.50;11.60;;;6.40;99.90;;;;;;4974519;28;20054;-82
2021/12/16 06:50:52;;;;;;;24.42;10.43;;;6.40;99.90;;;;;;4994247;28;20050;-83
2021/12/16 06:53:26;;;;;;;24.67;10.32;;;6.40;99.90;;;;;;4963119;28;20046;-82
2021/12/16 06:58:27;;;;;;;17.88;8.55;;;6.30;99.90;;;;;;5151547;23;20024;-82
2021/12/16 07:01:05;;;;;;;22.40;10.52;;;6.30;99.90;;;;;;5058956;28;20507;-82
2021/12/16 07:03:43;;;;;;;29.95;12.85;;;6.30;99.90;;;;;;5054712;28;20074;-83
2021/12/16 07:06:09;;;;;;;23.70;10.95;;;6.20;99.90;;;;;;5063792;28;20032;-82
2021/12/16 07:08:35;;;;;;;21.33;10.35;;;6.30;99.90;;;;;;5048455;28;20517;-83
2021/12/16 07:11:01;;;;;;;17.92;10.00;;;6.30;99.90;;;;;;5059910;28;20438;-83
2021/12/16 07:13:55;;;;;;;38.78;13.30;;;6.30;99.90;;;;;;5059750;28;20120;-82
2021/12/16 07:16:15;;;;;;;35.85;10.27;;;6.30;99.90;;;;;;5055526;28;20074;-83
2021/12/16 07:18:40;;;;;;;101.20;15.43;;;6.30;99.90;;;;;;5050573;28;20068;-83
2021/12/16 07:21:07;;;;;;;66.70;12.02;;;6.30;99.90;;;;;;5058093;28;20521;-83
2021/12/16 07:23:33;;;;;;;104.63;13.60;;;6.30;99.90;;;;;;5068380;28;20035;-83
2021/12/16 07:25:59;;;;;;;190.88;19.98;;;6.30;99.90;;;;;;5063909;28;20033;-82
2021/12/16 07:28:25;;;;;;;159.13;16.88;;;6.30;99.90;;;;;;5058849;28;20038;-82
2021/12/16 07:30:51;;;;;;;154.23;15.93;;;6.30;99.90;;;;;;5046408;28;20039;-82
2021/12/16 07:33:17;;;;;;;85.38;12.82;;;6.20;99.90;;;;;;5063529;28;20040;-82
2021/12/16 07:35:44;;;;;;;117.85;13.25;;;6.30;99.90;;;;;;5060805;28;20025;-82
2021/12/16 07:38:10;;;;;;;249.13;22.45;;;6.20;99.90;;;;;;5060258;28;20036;-82
2021/12/16 07:40:38;;;;;;;104.03;15.35;;;6.20;99.90;;;;;;5056243;28;20039;-83
2021/12/16 07:45:43;;;;;;;172.48;18.95;;;6.10;99.90;;;;;;5055993;28;20053;-83
2021/12/16 07:48:11;;;;;;;82.28;12.32;;;6.10;99.90;;;;;;5059687;28;20098;-83
2021/12/16 07:50:39;;;;;;;126.80;14.75;;;6.10;99.90;;;;;;5209310;22;20064;-82
2021/12/16 07:53:08;;;;;;;66.53;13.52;;;6.10;99.90;;;;;;5032094;28;20068;-83
2021/12/16 07:55:34;;;;;;;96.57;13.13;;;6.10;99.90;;;;;;5029898;28;20143;-83
2021/12/16 07:58:00;;;;;;;48.30;11.68;;;6.10;99.90;;;;;;5024941;28;20033;-83
2021/12/16 08:00:31;;;;;;;190.05;19.85;;;6.10;99.90;;;;;;5014228;28;20672;-83
2021/12/16 08:02:57;;;;;;;93.93;14.30;;;6.10;99.90;;;;;;5013962;28;20059;-83
2021/12/16 08:05:25;;;;;;;66.28;11.13;;;6.10;99.90;;;;;;5027230;28;20036;-83
2021/12/16 08:07:51;;;;;;;101.38;15.73;;;6.10;99.90;;;;;;5023902;28;20790;-83
2021/12/16 08:10:20;;;;;;;76.32;12.55;;;6.10;99.90;;;;;;5011564;28;20049;-83
2021/12/16 08:12:46;;;;;;;50.67;11.05;;;6.10;99.90;;;;;;5009584;28;20045;-83
2021/12/16 08:15:14;;;;;;;54.70;11.35;;;6.10;99.90;;;;;;5014700;28;20039;-83
2021/12/16 08:17:40;;;;;;;130.77;15.82;;;6.20;99.90;;;;;;5013574;28;20110;-83
2021/12/16 08:20:07;;;;;;;69.25;13.32;;;6.20;99.90;;;;;;5027958;28;20497;-83
2021/12/16 08:22:33;;;;;;;75.50;12.52;;;6.20;99.90;;;;;;5030125;28;20370;-83
2021/12/16 08:24:59;;;;;;;95.60;12.77;;;6.20;99.90;;;;;;5014126;28;20017;-83
2021/12/16 08:27:24;;;;;;;100.80;14.70;;;6.10;99.90;;;;;;5026192;28;20036;-82
2021/12/16 08:29:50;;;;;;;66.70;11.80;;;6.10;99.90;;;;;;5010228;28;20080;-82
2021/12/16 08:32:16;;;;;;;49.90;9.98;;;6.10;99.90;;;;;;5027804;28;20401;-82
2021/12/16 08:34:45;;;;;;;164.13;16.38;;;6.10;99.90;;;;;;5031947;28;20421;-82
2021/12/16 08:37:13;;;;;;;62.00;11.10;;;6.10;99.90;;;;;;5032147;28;20748;-82
2021/12/16 08:39:40;;;;;;;169.32;18.52;;;6.10;99.90;;;;;;5012840;28;20124;-82
2021/12/16 08:42:09;;;;;;;37.75;8.93;;;6.10;99.90;;;;;;5046760;28;20037;-82
2021/12/16 08:44:35;;;;;;;86.50;13.45;;;6.10;99.90;;;;;;5030084;28;20358;-82
2021/12/16 08:47:15;;;;;;;42.60;9.90;;;6.10;99.90;;;;;;5007000;28;20112;-82
2021/12/16 08:49:41;;;;;;;70.57;10.27;;;6.10;99.90;;;;;;5029296;28;20052;-82
2021/12/16 08:52:15;;;;;;;63.25;11.50;;;6.10;99.90;;;;;;4992594;28;20046;-82
2021/12/16 08:54:41;;;;;;;93.35;12.50;;;6.10;99.90;;;;;;4999501;28;20161;-82
2021/12/16 08:57:07;;;;;;;65.82;12.07;;;6.10;99.90;;;;;;5007195;28;20490;-82
2021/12/16 08:59:35;;;;;;;73.80;10.23;;;6.10;99.90;;;;;;4993786;28;20037;-82
2021/12/16 09:02:02;;;;;;;78.15;11.38;;;6.10;99.90;;;;;;5015272;28;20043;-82
2021/12/16 09:04:29;;;;;;;174.68;17.80;;;6.10;99.90;;;;;;5005315;28;20049;-82
2021/12/16 09:06:58;;;;;;;62.22;10.52;;;6.10;99.90;;;;;;5008382;28;20106;-82
2021/12/16 09:09:24;;;;;;;91.07;12.77;;;6.10;99.90;;;;;;4991666;28;20045;-82
2021/12/16 09:12:05;;;;;;;73.50;12.45;;;6.20;99.90;;;;;;4990945;28;20414;-82
2021/12/16 09:14:33;;;;;;;106.78;15.82;;;6.20;99.90;;;;;;4991793;28;20120;-82
2021/12/16 09:16:59;;;;;;;83.22;11.57;;;6.20;99.90;;;;;;4998341;28;20041;-82
2021/12/16 09:19:24;;;;;;;78.40;13.07;;;6.20;99.90;;;;;;5007116;28;20518;-82
2021/12/16 09:21:50;;;;;;;143.45;16.02;;;6.30;99.90;;;;;;5005278;28;20037;-82
2021/12/16 09:24:16;;;;;;;158.77;17.67;;;6.30;99.90;;;;;;4982122;28;20395;-82
2021/12/16 09:26:43;;;;;;;116.50;13.20;;;6.30;99.90;;;;;;5002692;28;20037;-86
2021/12/16 09:29:09;;;;;;;176.55;19.75;;;6.30;99.90;;;;;;5003472;28;20128;-83
2021/12/16 09:31:35;;;;;;;169.02;22.20;;;6.30;99.90;;;;;;4985402;28;20137;-83
2021/12/16 09:34:07;;;;;;;161.07;17.52;;;6.40;99.90;;;;;;4984828;28;20049;-83
2021/12/16 09:36:35;;;;;;;99.72;13.07;;;6.40;99.90;;;;;;4998655;28;20132;-83
2021/12/16 09:39:02;;;;;;;214.93;21.60;;;6.50;99.90;;;;;;4994736;28;20038;-83
2021/12/16 09:41:29;;;;;;;329.08;30.30;;;6.50;99.90;;;;;;5001410;28;20056;-82
2021/12/16 09:43:56;;;;;;;144.10;17.42;;;6.50;99.90;;;;;;4987590;28;20105;-82
2021/12/16 09:46:24;;;;;;;234.63;22.80;;;6.50;99.90;;;;;;4985793;28;20821;-82
2021/12/16 09:48:51;;;;;;;137.82;15.35;;;6.50;99.90;;;;;;5008105;28;20033;-82
2021/12/16 09:51:22;;;;;;;214.50;23.55;;;6.50;99.90;;;;;;4991586;28;20122;-82
2021/12/16 09:53:55;;;;;;;223.20;21.45;;;6.60;99.90;;;;;;5004338;28;20065;-82
2021/12/16 09:56:22;;;;;;;135.35;18.48;;;6.60;99.90;;;;;;5007345;28;20037;-82
2021/12/16 09:58:50;;;;;;;199.88;20.40;;;6.60;99.90;;;;;;5005632;28;20478;-82
2021/12/16 10:01:19;;;;;;;184.75;20.40;;;6.60;99.90;;;;;;5006836;28;20128;-82
2021/12/16 10:03:48;;;;;;;61.38;10.18;;;6.70;99.90;;;;;;5000029;28;20096;-82
2021/12/16 10:06:15;;;;;;;273.85;22.05;;;6.80;99.90;;;;;;4989894;28;20088;-82
2021/12/16 10:08:42;;;;;;;278.58;23.08;;;6.80;99.90;;;;;;4996156;28;20127;-82
2021/12/16 10:11:09;;;;;;;246.13;21.27;;;6.80;99.90;;;;;;5006612;28;20045;-82
2021/12/16 10:13:45;;;;;;;173.13;14.98;;;6.90;99.90;;;;;;5006295;28;20045;-82
2021/12/16 10:18:37;;;;;;;221.07;17.17;;;6.80;99.90;;;;;;5001385;28;20176;-82
2021/12/16 10:21:05;;;;;;;122.47;12.63;;;6.80;99.90;;;;;;5002992;28;20037;-83
2021/12/16 10:23:41;;;;;;;189.90;18.77;;;6.80;99.90;;;;;;4991338;28;20049;-82
2021/12/16 10:26:16;;;;;;;159.90;14.90;;;6.80;99.90;;;;;;5009314;28;20045;-82
2021/12/16 10:28:45;;;;;;;126.57;14.05;;;6.80;99.90;;;;;;5003269;28;20049;-82
2021/12/16 10:31:17;;;;;;;191.25;21.08;;;6.80;99.90;;;;;;5007498;28;20044;-82
2021/12/16 10:33:57;;;;;;;180.73;18.92;;;6.90;99.90;;;;;;4990556;28;20045;-82
2021/12/16 10:36:25;;;;;;;115.20;14.32;;;6.90;99.90;;;;;;4998770;28;20037;-82
2021/12/16 10:39:15;;;;;;;148.00;16.33;;;7.00;99.90;;;;;;5009977;28;20033;-82
2021/12/16 10:41:49;;;;;;;136.38;16.25;;;7.00;99.90;;;;;;5010297;28;20180;-82
2021/12/16 10:44:21;;;;;;;105.97;13.50;;;7.00;99.90;;;;;;5010506;28;20049;-82
2021/12/16 10:46:49;;;;;;;164.68;17.38;;;7.10;99.90;;;;;;5008399;28;20041;-82
2021/12/16 10:49:20;;;;;;;174.63;17.85;;;7.10;99.90;;;;;;5002139;28;20045;-82
2021/12/16 10:51:49;;;;;;;105.22;13.30;;;7.10;99.90;;;;;;5003294;28;20498;-82
2021/12/16 10:54:19;;;;;;;93.43;14.48;;;7.20;99.90;;;;;;5008585;28;20060;-82
2021/12/16 10:56:48;;;;;;;149.32;15.95;;;7.20;99.90;;;;;;4995247;28;20037;-82
2021/12/16 10:59:21;;;;;;;142.20;15.48;;;7.20;99.90;;;;;;5011612;28;20041;-82
2021/12/16 11:02:03;;;;;;;115.07;13.73;;;7.20;99.90;;;;;;4991884;28;20038;-82
2021/12/16 11:04:37;;;;;;;148.23;13.95;;;7.30;99.90;;;;;;5007644;28;20037;-82
2021/12/16 11:07:24;;;;;;;143.73;14.75;;;7.30;99.90;;;;;;5007296;28;20042;-82
2021/12/16 11:09:55;;;;;;;146.30;13.93;;;7.30;99.90;;;;;;4996959;28;20041;-82
2021/12/16 11:12:53;;;;;;;111.90;14.95;;;7.30;99.90;;;;;;5009707;28;20045;-82
2021/12/16 11:15:31;;;;;;;131.00;14.40;;;7.30;99.90;;;;;;5004063;28;20038;-82
2021/12/16 11:18:02;;;;;;;193.73;17.63;;;7.40;99.90;;;;;;5006526;28;20056;-82
2021/12/16 11:20:36;;;;;;;197.13;18.50;;;7.40;99.90;;;;;;5014422;28;20034;-82
2021/12/16 11:23:13;;;;;;;84.47;11.02;;;7.40;99.90;;;;;;4997590;28;20065;-82
2021/12/16 11:25:42;;;;;;;164.70;16.63;;;7.40;99.90;;;;;;5011471;28;20049;-82
2021/12/16 11:28:18;;;;;;;227.98;20.42;;;7.40;99.90;;;;;;5009079;28;20136;-82
2021/12/16 11:30:45;;;;;;;81.13;8.82;;;7.50;99.90;;;;;;5013880;28;20120;-82
2021/12/16 11:33:28;;;;;;;194.13;15.75;;;7.40;99.90;;;;;;5001903;28;20037;-82
2021/12/16 11:35:59;;;;;;;93.47;9.85;;;7.50;99.90;;;;;;5016686;28;20046;-82
2021/12/16 11:38:33;;;;;;;151.68;15.75;;;7.50;99.90;;;;;;4999371;28;20124;-83
2021/12/16 11:41:03;;;;;;;87.05;9.80;;;7.50;99.90;;;;;;5010071;28;20014;-83
2021/12/16 11:43:55;;;;;;;68.93;7.75;;;7.50;99.90;;;;;;4999805;28;20059;-83
2021/12/16 11:46:29;;;;;;;45.97;8.37;;;7.50;99.90;;;;;;4995827;28;20128;-82
2021/12/16 11:48:59;;;;;;;131.57;13.00;;;7.60;99.90;;;;;;5009730;28;20300;-82
2021/12/16 11:51:50;;;;;;;84.82;10.02;;;7.60;99.90;;;;;;5005570;28;20573;-82
2021/12/16 11:54:24;;;;;;;83.88;10.90;;;7.70;99.90;;;;;;4971162;28;20484;-82
2021/12/16 11:57:05;;;;;;;83.10;10.60;;;7.70;99.90;;;;;;4997174;28;20041;-82
2021/12/16 11:59:42;;;;;;;114.55;9.55;;;7.70;99.90;;;;;;4997872;28;20429;-82
2021/12/16 12:02:21;;;;;;;113.05;10.30;;;7.70;99.90;;;;;;5008913;28;20041;-82
2021/12/16 12:04:47;;;;;;;143.30;14.05;;;7.60;99.90;;;;;;5010362;28;20084;-82
2021/12/16 12:07:17;;;;;;;118.20;11.32;;;7.60;99.90;;;;;;5003867;28;20038;-82
2021/12/16 12:09:50;;;;;;;178.38;14.60;;;7.60;99.90;;;;;;5023679;28;20494;-82
2021/12/16 12:12:16;;;;;;;148.70;13.50;;;7.60;99.90;;;;;;4986488;28;20055;-82
2021/12/16 12:14:44;;;;;;;149.50;14.27;;;7.60;99.90;;;;;;5023066;28;20042;-82
2021/12/16 12:17:20;;;;;;;167.85;13.23;;;7.60;99.90;;;;;;4995580;28;20124;-82
2021/12/16 12:19:51;;;;;;;257.35;17.33;;;7.60;99.90;;;;;;4999487;28;20129;-82
2021/12/16 12:22:23;;;;;;;126.22;10.70;;;7.60;99.90;;;;;;5016766;28;20013;-82
2021/12/16 12:24:49;;;;;;;71.78;8.65;;;7.60;99.90;;;;;;5008518;28;20094;-82
2021/12/16 12:27:21;;;;;;;151.38;14.63;;;7.60;99.90;;;;;;4987721;28;20429;-82
2021/12/16 12:30:00;;;;;;;;;;;7.60;99.90;;;;;;5022336;28;20029;-82
2021/12/16 12:32:34;;;;;;;47.35;8.00;;;7.60;99.90;;;;;;5008855;28;19923;-82
2021/12/16 12:35:15;;;;;;;127.00;12.05;;;7.60;99.90;;;;;;5012464;28;20117;-82
2021/12/16 12:37:48;;;;;;;85.78;10.20;;;7.60;99.90;;;;;;5012618;28;20506;-82
2021/12/16 12:40:21;;;;;;;118.68;12.38;;;7.60;99.90;;;;;;4993031;28;20052;-82
2021/12/16 12:42:48;;;;;;;113.82;11.27;;;7.60;99.90;;;;;;4995769;28;20479;-83
2021/12/16 12:45:19;;;;;;;52.60;8.10;;;7.60;99.90;;;;;;5036378;28;20791;-83
2021/12/16 12:47:49;;;;;;;106.70;10.57;;;7.60;99.90;;;;;;4999183;28;20041;-82
2021/12/16 12:53:23;;;;;;;99.25;10.55;;;7.70;99.90;;;;;;5436010;22;20050;-83
2021/12/16 12:55:51;;;;;;;92.20;11.25;;;7.70;99.90;;;;;;4950798;28;20516;-83
2021/12/16 12:58:22;;;;;;;122.55;12.30;;;7.70;99.90;;;;;;4972199;28;20447;-83
2021/12/16 13:00:58;;;;;;;186.82;13.52;;;7.70;99.90;;;;;;4955532;28;20042;-83
2021/12/16 13:03:30;;;;;;;95.78;11.05;;;7.70;99.90;;;;;;4941068;28;20132;-83
2021/12/16 13:06:00;;;;;;;92.35;11.07;;;7.70;99.90;;;;;;4953002;28;20066;-83
2021/12/16 13:08:32;;;;;;;52.63;7.70;;;7.70;99.90;;;;;;4938346;28;20491;-83
2021/12/16 13:11:03;;;;;;;193.20;15.15;;;7.80;99.90;;;;;;4955867;28;20419;-83
2021/12/16 13:13:34;;;;;;;100.90;9.82;;;7.80;99.90;;;;;;4956816;28;20045;-83
2021/12/16 13:16:39;;;;;;;97.28;12.20;;;7.80;99.90;;;;;;4953637;28;20547;-83
2021/12/16 13:28:17;;;;;;;106.13;11.73;;;7.90;99.90;;;;;;4959957;28;20407;-84
2021/12/16 13:31:02;;;;;;;57.08;8.55;;;7.80;99.90;;;;;;4950878;28;20042;-83
2021/12/16 13:33:44;;;;;;;117.70;13.98;;;7.80;99.90;;;;;;4943538;28;20125;-83
2021/12/16 13:36:18;;;;;;;58.53;9.67;;;7.80;99.90;;;;;;4956294;28;20510;-83
2021/12/16 13:38:48;;;;;;;50.15;10.27;;;7.80;99.90;;;;;;4937638;28;20043;-83
2021/12/16 13:41:29;;;;;;;75.53;10.80;;;7.80;99.90;;;;;;4952882;28;20468;-83
2021/12/16 13:43:56;;;;;;;74.05;11.48;;;7.80;99.90;;;;;;4952459;28;20551;-83
2021/12/16 13:58:19;;;;;;;108.63;13.10;;;7.90;99.90;;;;;;4951149;28;20035;-83
2021/12/16 14:03:27;;;;;;;136.55;15.05;;;7.90;99.90;;;;;;4945779;28;20050;-82
2021/12/16 14:06:12;;;;;;;72.47;10.23;;;7.90;99.90;;;;;;4952832;28;20038;-83
2021/12/16 14:08:51;;;;;;;124.70;10.57;;;7.90;99.90;;;;;;4952298;28;20448;-83
2021/12/16 14:14:48;;;;;;;53.75;7.45;;;7.80;99.90;;;;;;4955557;28;20093;-83
2021/12/16 14:23:42;;;;;;;102.32;11.23;;;7.80;99.90;;;;;;4910396;28;20051;-83
2021/12/16 14:26:21;;;;;;;68.88;9.25;;;7.80;99.90;;;;;;4952993;28;20043;-82
2021/12/16 14:32:06;;;;;;;106.47;13.23;;;7.70;99.90;;;;;;4970429;28;20499;-82
2021/12/16 14:34:55;;;;;;;146.52;15.85;;;7.70;99.90;;;;;;4959672;28;20499;-82
2021/12/16 14:37:29;;;;;;;118.18;12.07;;;7.70;99.90;;;;;;4958979;28;20173;-82
2021/12/16 14:45:45;;;;;;;67.13;9.65;;;7.70;99.90;;;;;;4950992;28;20491;-82
2021/12/16 14:51:00;;;;;;;89.70;12.65;;;7.70;99.90;;;;;;4957659;28;20066;-82
2021/12/16 14:53:44;;;;;;;61.97;9.85;;;7.70;99.90;;;;;;4955414;28;20113;-82
2021/12/16 14:56:21;;;;;;;156.95;14.35;;;7.70;99.90;;;;;;4940756;28;20106;-82
2021/12/16 14:58:57;;;;;;;126.95;14.18;;;7.70;99.90;;;;;;4971771;28;20042;-82
2021/12/16 15:01:27;;;;;;;88.47;12.77;;;7.70;99.90;;;;;;4949261;28;20046;-82
2021/12/16 15:03:54;;;;;;;151.20;16.10;;;7.70;99.90;;;;;;4961279;28;20042;-82
2021/12/16 15:06:28;;;;;;;84.30;11.35;;;7.60;99.90;;;;;;4953919;28;20056;-82
2021/12/16 15:09:13;;;;;;;132.52;15.63;;;7.70;99.90;;;;;;4939278;28;20478;-82
2021/12/16 15:17:13;;;;;;;168.13;17.73;;;7.60;99.90;;;;;;4956849;28;20399;-82
2021/12/16 15:35:32;;;;;;;146.68;15.73;;;7.50;99.90;;;;;;4960465;28;20484;-83
2021/12/16 15:45:00;;;;;;;42.42;9.30;;;7.50;99.90;;;;;;4955154;28;20050;-81
2021/12/16 15:47:26;;;;;;;73.80;11.10;;;7.60;99.90;;;;;;4958698;28;20101;-81
2021/12/16 15:49:52;;;;;;;75.28;10.65;;;7.50;99.90;;;;;;4967523;28;20543;-81
2021/12/16 15:52:18;;;;;;;46.60;9.02;;;7.50;99.90;;;;;;4960572;28;20059;-81
2021/12/16 15:54:51;;;;;;;82.90;10.18;;;7.50;99.90;;;;;;4960616;28;20047;-81
2021/12/16 15:57:23;;;;;;;114.88;11.90;;;7.50;99.90;;;;;;4953905;28;20050;-81
2021/12/16 15:59:50;;;;;;;159.93;15.23;;;7.50;99.90;;;;;;4947691;28;20043;-81
2021/12/16 16:02:17;;;;;;;88.72;10.13;;;7.50;99.90;;;;;;4955425;28;20130;-81
2021/12/16 16:04:43;;;;;;;60.50;8.95;;;7.50;99.90;;;;;;4958660;28;20062;-81
2021/12/16 16:07:12;;;;;;;46.03;9.32;;;7.50;99.90;;;;;;4958032;28;20051;-81
2021/12/16 16:09:43;;;;;;;51.25;7.18;;;7.50;99.90;;;;;;4956810;28;20057;-81
2021/12/16 16:12:15;;;;;;;61.08;8.75;;;7.50;99.90;;;;;;4955534;28;20042;-81
2021/12/16 16:14:44;;;;;;;117.93;12.00;;;7.50;99.90;;;;;;4953472;28;20035;-82
2021/12/16 16:17:15;;;;;;;76.80;9.60;;;7.50;99.90;;;;;;4948736;28;20400;-82
2021/12/16 16:19:42;;;;;;;70.50;9.95;;;7.50;99.90;;;;;;4952168;28;20078;-82
2021/12/16 16:22:08;;;;;;;53.60;8.90;;;7.60;99.90;;;;;;4934779;28;20047;-82
2021/12/16 16:24:39;;;;;;;147.20;13.13;;;7.60;99.90;;;;;;4947731;28;20070;-82
2021/12/16 16:27:12;;;;;;;77.68;9.80;;;7.60;99.90;;;;;;4944400;28;20052;-82
2021/12/16 16:29:40;;;;;;;68.20;8.15;;;7.60;99.90;;;;;;4959869;28;20058;-82
2021/12/16 16:32:06;;;;;;;58.15;7.30;;;7.60;99.90;;;;;;4953815;28;20047;-82
2021/12/16 16:34:43;;;;;;;178.13;11.75;;;7.60;99.90;;;;;;4938541;29;20039;-82
2021/12/16 16:37:10;;;;;;;106.68;11.20;;;7.60;99.90;;;;;;4940110;28;20078;-82
2021/12/16 16:39:40;;;;;;;54.53;9.07;;;7.60;99.90;;;;;;4938019;29;20043;-82